Time;durP1;ratioP1;P1;durP2;ratioP2;P2;SDS_P1;SDS_P2;PMS_P1;PMS_P2;Temp;Humidity;BMP_temperature;BMP_pressure;BME280_temperature;BME280_humidity;BME280_pressure;Samples;Min_cycle;Max_cycle;Signal;HPM_P1;HPM_P2
2023/12/07 00:01:00;;;;;;;17.43;12.50;;;;;;;;;;5029439;28;20457;-63
2023/12/07 00:03:25;;;;;;;16.73;12.27;;;;;;;;;;5044589;28;20540;-64
2023/12/07 00:05:50;;;;;;;21.87;16.00;;;;;;;;;;5049971;28;20782;-64
2023/12/07 00:08:15;;;;;;;19.00;14.60;;;;;;;;;;5048307;28;20410;-64
2023/12/07 00:10:41;;;;;;;15.30;12.27;;;;;;;;;;5049328;28;20517;-64
2023/12/07 00:13:06;;;;;;;15.33;12.33;;;;;;;;;;5048439;28;20417;-64
2023/12/07 00:15:31;;;;;;;18.00;13.63;;;;;;;;;;5050115;28;20396;-64
2023/12/07 00:17:57;;;;;;;18.87;13.67;;;;;;;;;;5049806;28;20397;-64
2023/12/07 00:20:22;;;;;;;15.07;12.02;;;;;;;;;;5050499;28;20388;-64
2023/12/07 00:22:47;;;;;;;14.23;12.13;;;;;;;;;;5043877;28;20744;-64
2023/12/07 00:25:12;;;;;;;16.93;12.57;;;;;;;;;;5053214;28;20934;-64
2023/12/07 00:27:38;;;;;;;20.03;14.97;;;;;;;;;;5052911;28;20401;-64
2023/12/07 00:30:03;;;;;;;18.93;13.93;;;;;;;;;;5053233;28;20484;-64
2023/12/07 00:32:29;;;;;;;15.77;12.40;;;;;;;;;;5053578;28;20397;-64
2023/12/07 00:34:54;;;;;;;16.45;12.45;;;;;;;;;;5035258;28;20397;-64
2023/12/07 00:37:19;;;;;;;17.93;12.47;;;;;;;;;;5053343;28;20401;-64
2023/12/07 00:39:45;;;;;;;16.83;13.23;;;;;;;;;;5053666;28;20493;-64
2023/12/07 00:42:10;;;;;;;21.88;14.98;;;;;;;;;;5052360;28;20443;-64
2023/12/07 00:44:41;;;;;;;17.47;12.37;;;;;;;;;;5053469;28;20393;-64
2023/12/07 00:47:07;;;;;;;15.73;12.35;;;;;;;;;;5053116;28;20425;-64
2023/12/07 00:49:32;;;;;;;14.30;11.50;;;;;;;;;;5052817;28;20401;-63
2023/12/07 00:51:58;;;;;;;14.90;11.10;;;;;;;;;;5053614;28;20406;-63
2023/12/07 00:54:25;;;;;;;14.70;11.67;;;;;;;;;;5052673;28;20384;-63
2023/12/07 00:56:51;;;;;;;13.63;10.50;;;;;;;;;;5052517;28;20427;-63
2023/12/07 00:59:16;;;;;;;13.17;10.87;;;;;;;;;;5052808;28;20808;-63
2023/12/07 01:01:41;;;;;;;15.30;11.93;;;;;;;;;;5053399;28;20939;-63
2023/12/07 01:04:07;;;;;;;14.73;11.07;;;;;;;;;;5051849;28;20397;-63
2023/12/07 01:06:32;;;;;;;13.77;10.40;;;;;;;;;;5053044;28;20474;-64
2023/12/07 01:08:58;;;;;;;17.23;11.80;;;;;;;;;;5053140;28;20459;-64
2023/12/07 01:11:23;;;;;;;14.80;11.00;;;;;;;;;;5051872;28;20432;-64
2023/12/07 01:13:48;;;;;;;16.40;11.67;;;;;;;;;;5052932;28;20969;-64
2023/12/07 01:16:14;;;;;;;18.08;13.77;;;;;;;;;;5051805;28;20397;-64
2023/12/07 01:18:39;;;;;;;15.67;12.20;;;;;;;;;;5052918;28;20421;-64
2023/12/07 01:21:04;;;;;;;19.90;14.00;;;;;;;;;;5034867;28;20437;-64
2023/12/07 01:23:30;;;;;;;17.83;13.18;;;;;;;;;;5052048;28;20748;-64
2023/12/07 01:25:55;;;;;;;14.20;10.90;;;;;;;;;;5052803;28;20393;-64
2023/12/07 01:28:20;;;;;;;14.20;10.90;;;;;;;;;;5052129;28;20409;-64
2023/12/07 01:30:46;;;;;;;15.10;11.80;;;;;;;;;;5051916;28;20420;-64
2023/12/07 01:33:11;;;;;;;13.80;10.93;;;;;;;;;;5051691;28;20831;-64
2023/12/07 01:35:36;;;;;;;15.40;11.37;;;;;;;;;;5052014;28;20381;-64
2023/12/07 01:38:01;;;;;;;15.03;11.20;;;;;;;;;;5051624;28;20416;-64
2023/12/07 01:40:27;;;;;;;12.37;10.40;;;;;;;;;;5052620;28;20488;-64
2023/12/07 01:42:52;;;;;;;12.87;10.50;;;;;;;;;;5052573;28;20389;-64
2023/12/07 01:45:17;;;;;;;16.97;12.20;;;;;;;;;;5051118;28;20409;-64
2023/12/07 01:47:43;;;;;;;16.13;10.70;;;;;;;;;;5052473;28;20451;-64
2023/12/07 01:50:08;;;;;;;15.70;12.00;;;;;;;;;;5051726;28;20402;-64
2023/12/07 01:52:35;;;;;;;16.23;12.80;;;;;;;;;;5034029;28;20429;-64
2023/12/07 01:55:00;;;;;;;15.23;11.32;;;;;;;;;;5034543;28;20488;-64
2023/12/07 01:57:25;;;;;;;13.00;10.33;;;;;;;;;;5034120;28;20465;-64
2023/12/07 01:59:51;;;;;;;14.40;10.70;;;;;;;;;;5051308;28;20740;-64
2023/12/07 02:02:16;;;;;;;17.07;13.07;;;;;;;;;;5051630;28;20799;-64
2023/12/07 02:04:41;;;;;;;16.10;10.43;;;;;;;;;;5034103;28;20398;-64
2023/12/07 02:07:06;;;;;;;13.63;10.47;;;;;;;;;;5050578;28;20472;-64
2023/12/07 02:09:32;;;;;;;15.13;10.57;;;;;;;;;;5034136;28;20394;-64
2023/12/07 02:11:57;;;;;;;15.00;10.93;;;;;;;;;;5052121;28;20398;-64
2023/12/07 02:14:23;;;;;;;12.63;10.00;;;;;;;;;;5050472;28;20417;-64
2023/12/07 02:16:49;;;;;;;15.13;11.23;;;;;;;;;;5034236;28;20473;-64
2023/12/07 02:19:20;;;;;;;13.97;10.67;;;;;;;;;;5033550;28;20422;-64
2023/12/07 02:21:47;;;;;;;15.50;11.13;;;;;;;;;;5051089;28;20396;-64
2023/12/07 02:24:13;;;;;;;14.18;10.48;;;;;;;;;;5051167;28;20402;-64
2023/12/07 02:26:39;;;;;;;16.40;12.02;;;;;;;;;;5032961;28;20432;-64
2023/12/07 02:29:04;;;;;;;16.23;11.57;;;;;;;;;;5033385;28;20441;-64
2023/12/07 02:31:29;;;;;;;14.03;10.87;;;;;;;;;;5051363;28;20911;-64
2023/12/07 02:33:54;;;;;;;16.55;11.93;;;;;;;;;;5050931;28;20462;-64
2023/12/07 02:36:20;;;;;;;13.93;10.83;;;;;;;;;;5050850;28;20394;-64
2023/12/07 02:38:46;;;;;;;13.35;10.02;;;;;;;;;;5051505;28;20411;-64
2023/12/07 02:41:11;;;;;;;14.83;10.60;;;;;;;;;;5032333;28;20462;-64
2023/12/07 02:43:37;;;;;;;13.25;10.32;;;;;;;;;;5051455;28;20440;-64
2023/12/07 02:46:03;;;;;;;12.93;9.57;;;;;;;;;;5032692;28;20405;-64
2023/12/07 02:48:29;;;;;;;13.37;9.73;;;;;;;;;;5032820;28;20801;-64
2023/12/07 02:50:54;;;;;;;14.88;10.82;;;;;;;;;;5033445;28;20389;-64
2023/12/07 02:53:20;;;;;;;13.80;10.75;;;;;;;;;;5050753;28;20378;-64
2023/12/07 02:55:45;;;;;;;13.67;10.70;;;;;;;;;;5032505;28;20451;-64
2023/12/07 02:58:10;;;;;;;14.10;10.73;;;;;;;;;;5050880;28;20412;-64
2023/12/07 03:00:36;;;;;;;12.93;10.25;;;;;;;;;;5050831;28;20424;-64
2023/12/07 03:03:01;;;;;;;12.80;10.63;;;;;;;;;;5049785;28;20402;-64
2023/12/07 03:05:26;;;;;;;13.67;11.10;;;;;;;;;;5050938;28;20381;-64
2023/12/07 03:07:51;;;;;;;15.83;11.30;;;;;;;;;;5050586;28;20892;-64
2023/12/07 03:10:17;;;;;;;17.75;12.93;;;;;;;;;;5049538;28;20559;-64
2023/12/07 03:12:42;;;;;;;15.30;10.77;;;;;;;;;;5051024;28;20406;-64
2023/12/07 03:15:10;;;;;;;16.40;12.23;;;;;;;;;;5050033;28;20404;-64
2023/12/07 03:17:35;;;;;;;14.27;11.18;;;;;;;;;;5050057;28;20382;-64
2023/12/07 03:20:00;;;;;;;15.30;11.13;;;;;;;;;;5050737;28;20409;-64
2023/12/07 03:22:25;;;;;;;15.57;11.03;;;;;;;;;;5050154;28;20397;-64
2023/12/07 03:24:51;;;;;;;16.73;11.80;;;;;;;;;;5050022;28;20889;-64
2023/12/07 03:27:16;;;;;;;19.30;12.73;;;;;;;;;;5049994;28;20428;-64
2023/12/07 03:29:42;;;;;;;17.43;12.27;;;;;;;;;;5050367;28;20907;-65
2023/12/07 03:32:07;;;;;;;14.90;10.40;;;;;;;;;;5045145;28;20394;-64
2023/12/07 03:34:32;;;;;;;14.80;10.37;;;;;;;;;;5026967;28;20437;-64
2023/12/07 03:36:57;;;;;;;15.77;10.90;;;;;;;;;;5034908;28;21069;-64
2023/12/07 03:39:24;;;;;;;16.03;11.47;;;;;;;;;;5020368;28;20391;-64
2023/12/07 03:41:50;;;;;;;17.00;11.48;;;;;;;;;;5023843;28;20805;-63
2023/12/07 03:44:15;;;;;;;15.60;11.23;;;;;;;;;;5019750;28;20960;-63
2023/12/07 03:46:40;;;;;;;17.90;10.68;;;;;;;;;;5020526;28;20398;-64
2023/12/07 03:49:05;;;;;;;15.57;10.70;;;;;;;;;;5022112;28;20441;-64
2023/12/07 03:51:31;;;;;;;15.20;11.57;;;;;;;;;;5021127;28;20429;-64
2023/12/07 03:53:56;;;;;;;16.90;10.93;;;;;;;;;;5031170;28;20916;-64
2023/12/07 03:56:28;;;;;;;13.47;10.30;;;;;;;;;;5015027;28;20976;-63
2023/12/07 03:58:53;;;;;;;14.82;10.82;;;;;;;;;;5039491;28;20409;-64
2023/12/07 04:01:23;;;;;;;14.65;10.35;;;;;;;;;;5029389;28;20408;-63
2023/12/07 04:03:48;;;;;;;15.20;10.75;;;;;;;;;;5020486;28;20880;-64
2023/12/07 04:06:14;;;;;;;14.17;11.13;;;;;;;;;;5019042;28;20431;-64
2023/12/07 04:08:39;;;;;;;12.77;9.87;;;;;;;;;;5026445;28;20411;-63
2023/12/07 04:11:05;;;;;;;13.25;10.38;;;;;;;;;;5025509;28;20403;-64
2023/12/07 04:13:30;;;;;;;14.20;10.40;;;;;;;;;;5012708;28;20448;-63
2023/12/07 04:15:55;;;;;;;15.13;11.17;;;;;;;;;;5012367;28;20395;-64
2023/12/07 04:18:21;;;;;;;14.57;11.00;;;;;;;;;;5014811;28;20403;-64
2023/12/07 04:20:46;;;;;;;14.57;10.97;;;;;;;;;;5028269;28;20469;-64
2023/12/07 04:23:11;;;;;;;12.33;10.23;;;;;;;;;;5019873;28;20893;-64
2023/12/07 04:25:37;;;;;;;13.07;10.33;;;;;;;;;;5020118;28;20474;-64
2023/12/07 04:28:02;;;;;;;14.48;10.65;;;;;;;;;;5019213;28;20525;-64
2023/12/07 04:30:27;;;;;;;14.17;10.87;;;;;;;;;;5020522;28;20774;-63
2023/12/07 04:32:52;;;;;;;11.97;10.53;;;;;;;;;;5020723;28;20406;-64
2023/12/07 04:35:18;;;;;;;14.40;10.67;;;;;;;;;;5027317;28;20393;-64
2023/12/07 04:37:43;;;;;;;15.23;11.10;;;;;;;;;;5031329;28;20397;-64
2023/12/07 04:40:10;;;;;;;15.10;11.20;;;;;;;;;;5021260;28;20410;-64
2023/12/07 04:42:35;;;;;;;13.43;11.48;;;;;;;;;;5026860;28;20980;-64
2023/12/07 04:45:00;;;;;;;19.90;14.17;;;;;;;;;;5025335;28;20396;-64
2023/12/07 04:47:26;;;;;;;15.73;11.93;;;;;;;;;;5037227;28;20400;-64
2023/12/07 04:49:51;;;;;;;15.27;11.10;;;;;;;;;;5025573;28;20480;-63
2023/12/07 04:52:16;;;;;;;15.77;11.27;;;;;;;;;;5021118;28;20960;-63
2023/12/07 04:54:42;;;;;;;14.37;11.83;;;;;;;;;;5023057;28;20400;-64
2023/12/07 04:57:07;;;;;;;14.77;11.63;;;;;;;;;;5035403;28;20488;-64
2023/12/07 04:59:32;;;;;;;14.73;11.90;;;;;;;;;;5032246;28;20471;-63
2023/12/07 05:01:58;;;;;;;15.20;11.47;;;;;;;;;;5015651;28;20422;-64
2023/12/07 05:04:23;;;;;;;14.30;11.40;;;;;;;;;;5014968;28;20410;-64
2023/12/07 05:06:49;;;;;;;16.73;12.23;;;;;;;;;;5019447;28;20419;-64
2023/12/07 05:09:15;;;;;;;15.20;11.43;;;;;;;;;;5021144;28;20423;-63
2023/12/07 05:11:40;;;;;;;14.47;11.10;;;;;;;;;;5023710;28;20411;-64
2023/12/07 05:14:06;;;;;;;15.63;12.07;;;;;;;;;;5022866;28;20395;-64
2023/12/07 05:16:31;;;;;;;14.40;11.77;;;;;;;;;;5023187;28;20399;-64
2023/12/07 05:18:56;;;;;;;16.73;11.50;;;;;;;;;;5028038;28;20641;-64
2023/12/07 05:21:21;;;;;;;14.60;10.83;;;;;;;;;;5034931;28;20423;-64
2023/12/07 05:23:47;;;;;;;14.00;11.27;;;;;;;;;;5033700;28;21084;-64
2023/12/07 05:26:12;;;;;;;14.87;11.87;;;;;;;;;;5017960;28;20409;-64
2023/12/07 05:28:38;;;;;;;18.70;13.70;;;;;;;;;;5038395;28;20733;-64
2023/12/07 05:31:03;;;;;;;19.45;13.40;;;;;;;;;;5036209;28;20832;-64
2023/12/07 05:33:28;;;;;;;18.30;12.40;;;;;;;;;;5023117;28;20395;-64
2023/12/07 05:35:54;;;;;;;26.80;13.35;;;;;;;;;;5023021;28;20406;-64
2023/12/07 05:38:19;;;;;;;34.67;14.40;;;;;;;;;;5021665;28;20406;-64
2023/12/07 05:40:44;;;;;;;40.70;14.00;;;;;;;;;;5025284;28;20413;-64
2023/12/07 05:43:10;;;;;;;69.70;15.53;;;;;;;;;;5035542;28;20448;-64
2023/12/07 05:45:35;;;;;;;54.42;16.50;;;;;;;;;;5014643;28;20398;-64
2023/12/07 05:48:00;;;;;;;102.57;17.60;;;;;;;;;;5014673;28;20418;-64
2023/12/07 05:50:26;;;;;;;31.13;13.93;;;;;;;;;;5020828;28;20399;-64
2023/12/07 05:52:51;;;;;;;33.88;12.95;;;;;;;;;;5022218;28;20906;-64
2023/12/07 05:55:17;;;;;;;66.77;16.20;;;;;;;;;;5033633;28;20404;-64
2023/12/07 05:57:44;;;;;;;41.93;14.50;;;;;;;;;;5041843;28;20416;-64
2023/12/07 06:00:10;;;;;;;71.20;15.75;;;;;;;;;;5041349;28;20788;-64
2023/12/07 06:02:36;;;;;;;34.13;13.88;;;;;;;;;;5022570;28;20750;-63
2023/12/07 06:05:03;;;;;;;43.90;14.13;;;;;;;;;;5017479;28;20878;-64
2023/12/07 06:07:29;;;;;;;36.38;12.02;;;;;;;;;;5033444;28;20467;-63
2023/12/07 06:09:55;;;;;;;36.87;13.60;;;;;;;;;;5033664;28;20401;-64
2023/12/07 06:12:21;;;;;;;240.85;22.60;;;;;;;;;;5036861;28;20429;-64
2023/12/07 06:14:47;;;;;;;46.95;12.88;;;;;;;;;;5042013;28;20474;-64
2023/12/07 06:17:12;;;;;;;57.67;15.67;;;;;;;;;;5041542;28;20795;-63
2023/12/07 06:19:37;;;;;;;43.28;13.95;;;;;;;;;;5040307;28;20954;-64
2023/12/07 06:22:03;;;;;;;85.53;15.27;;;;;;;;;;5041440;28;20405;-64
2023/12/07 06:24:28;;;;;;;37.30;13.13;;;;;;;;;;5038152;28;20391;-64
2023/12/07 06:26:54;;;;;;;139.40;16.17;;;;;;;;;;5021046;28;20405;-64
2023/12/07 06:29:19;;;;;;;70.00;14.60;;;;;;;;;;5033385;28;20776;-64
2023/12/07 06:31:45;;;;;;;84.87;15.63;;;;;;;;;;5022819;28;20465;-64
2023/12/07 06:34:10;;;;;;;104.10;17.05;;;;;;;;;;5014038;28;20886;-64
2023/12/07 06:36:36;;;;;;;121.93;15.40;;;;;;;;;;5021949;28;20414;-64
2023/12/07 06:39:01;;;;;;;138.83;18.03;;;;;;;;;;5021695;28;20758;-64
2023/12/07 06:41:27;;;;;;;141.20;17.00;;;;;;;;;;5022305;28;20402;-64
2023/12/07 06:43:52;;;;;;;87.70;15.80;;;;;;;;;;5022038;28;20423;-64
2023/12/07 06:46:17;;;;;;;115.30;16.80;;;;;;;;;;5021378;28;20413;-64
2023/12/07 06:48:43;;;;;;;150.20;17.53;;;;;;;;;;5020614;28;20407;-64
2023/12/07 06:51:08;;;;;;;46.77;14.70;;;;;;;;;;5014765;28;20478;-64
2023/12/07 06:53:33;;;;;;;74.27;13.87;;;;;;;;;;5013755;28;20403;-63
2023/12/07 06:55:59;;;;;;;39.77;12.57;;;;;;;;;;5013117;28;20944;-64
2023/12/07 06:58:24;;;;;;;37.15;12.93;;;;;;;;;;5019865;28;20403;-64
2023/12/07 07:00:49;;;;;;;118.03;14.87;;;;;;;;;;5021633;28;20770;-64
2023/12/07 07:03:15;;;;;;;55.27;12.27;;;;;;;;;;5020290;28;20793;-64
2023/12/07 07:05:40;;;;;;;51.13;12.27;;;;;;;;;;5021589;28;20451;-64
2023/12/07 07:08:07;;;;;;;101.70;15.87;;;;;;;;;;5019781;28;20816;-64
2023/12/07 07:10:33;;;;;;;30.85;12.18;;;;;;;;;;5041271;28;20412;-64
2023/12/07 07:13:00;;;;;;;187.60;21.70;;;;;;;;;;5036282;28;20390;-64
2023/12/07 07:15:25;;;;;;;140.60;17.70;;;;;;;;;;5031568;28;20394;-64
2023/12/07 07:17:51;;;;;;;139.33;19.43;;;;;;;;;;5032147;28;20404;-64
2023/12/07 07:20:17;;;;;;;113.13;19.85;;;;;;;;;;5036315;28;20396;-64
2023/12/07 07:22:42;;;;;;;237.05;25.08;;;;;;;;;;5050168;28;20398;-64
2023/12/07 07:25:08;;;;;;;148.40;18.63;;;;;;;;;;5050102;28;20409;-66
2023/12/07 07:27:33;;;;;;;49.95;15.20;;;;;;;;;;5050581;28;20931;-64
2023/12/07 07:29:59;;;;;;;47.57;13.10;;;;;;;;;;5049892;28;20397;-65
2023/12/07 07:32:24;;;;;;;133.68;18.73;;;;;;;;;;5055110;28;20738;-64
2023/12/07 07:34:50;;;;;;;35.03;12.50;;;;;;;;;;5050544;28;20910;-64
2023/12/07 07:37:15;;;;;;;103.80;15.53;;;;;;;;;;5045688;28;20891;-64
2023/12/07 07:39:40;;;;;;;103.57;17.10;;;;;;;;;;5049241;28;20402;-63
2023/12/07 07:42:05;;;;;;;168.47;21.30;;;;;;;;;;5046944;28;20489;-63
2023/12/07 07:44:31;;;;;;;93.33;16.00;;;;;;;;;;5049220;28;20922;-62
2023/12/07 07:46:56;;;;;;;65.00;14.37;;;;;;;;;;5048936;28;20436;-63
2023/12/07 07:49:22;;;;;;;56.65;13.95;;;;;;;;;;5049297;28;20725;-63
2023/12/07 07:51:47;;;;;;;31.67;14.00;;;;;;;;;;5049002;28;20404;-63
2023/12/07 07:54:12;;;;;;;50.90;14.60;;;;;;;;;;5049282;28;20410;-63
2023/12/07 07:56:38;;;;;;;72.93;15.85;;;;;;;;;;5046760;28;20541;-63
2023/12/07 07:59:03;;;;;;;68.73;14.87;;;;;;;;;;5048324;28;20447;-63
2023/12/07 08:01:28;;;;;;;27.17;13.60;;;;;;;;;;5049440;28;20805;-62
2023/12/07 08:03:54;;;;;;;61.57;15.30;;;;;;;;;;5049026;28;20436;-63
2023/12/07 08:06:20;;;;;;;85.05;17.10;;;;;;;;;;5048120;28;20410;-63
2023/12/07 08:08:45;;;;;;;65.83;15.93;;;;;;;;;;5049130;28;20787;-63
2023/12/07 08:11:10;;;;;;;47.83;16.90;;;;;;;;;;5048439;28;20496;-63
2023/12/07 08:13:36;;;;;;;43.28;16.90;;;;;;;;;;5049074;28;20409;-61
2023/12/07 08:16:01;;;;;;;74.93;17.27;;;;;;;;;;5049096;28;20409;-63
2023/12/07 08:18:26;;;;;;;109.90;18.90;;;;;;;;;;5048641;28;20451;-63
2023/12/07 08:20:52;;;;;;;224.18;28.65;;;;;;;;;;5044379;28;20904;-62
2023/12/07 08:23:17;;;;;;;44.90;17.30;;;;;;;;;;5046856;28;20427;-62
2023/12/07 08:25:43;;;;;;;50.70;16.80;;;;;;;;;;5029575;28;20403;-62
2023/12/07 08:28:09;;;;;;;137.95;25.58;;;;;;;;;;5046636;28;20405;-63
2023/12/07 08:30:34;;;;;;;91.03;18.10;;;;;;;;;;5049490;28;20412;-62
2023/12/07 08:33:00;;;;;;;180.98;24.90;;;;;;;;;;5048726;28;20504;-62
2023/12/07 08:35:25;;;;;;;110.73;24.23;;;;;;;;;;5049344;28;20934;-62
2023/12/07 08:37:50;;;;;;;60.97;19.97;;;;;;;;;;5049515;28;20472;-64
2023/12/07 08:40:15;;;;;;;104.90;20.57;;;;;;;;;;5047925;28;20443;-64
2023/12/07 08:42:44;;;;;;;50.87;16.10;;;;;;;;;;5049937;28;20438;-63
2023/12/07 08:45:10;;;;;;;109.05;20.77;;;;;;;;;;5052820;28;20400;-63
2023/12/07 08:47:35;;;;;;;50.57;16.67;;;;;;;;;;5052688;28;20405;-64
2023/12/07 08:50:01;;;;;;;47.97;18.33;;;;;;;;;;5053150;28;20412;-63
2023/12/07 08:52:27;;;;;;;65.23;22.93;;;;;;;;;;5053412;28;20443;-63
2023/12/07 08:54:52;;;;;;;38.60;19.13;;;;;;;;;;5049579;28;20401;-63
2023/12/07 08:57:17;;;;;;;63.90;20.53;;;;;;;;;;5052490;28;20567;-63
2023/12/07 08:59:43;;;;;;;46.30;18.75;;;;;;;;;;5053065;28;20492;-62
2023/12/07 09:02:08;;;;;;;121.67;22.43;;;;;;;;;;5051616;28;20423;-63
2023/12/07 09:04:33;;;;;;;67.07;22.03;;;;;;;;;;5053472;28;20389;-64
2023/12/07 09:06:59;;;;;;;52.45;19.42;;;;;;;;;;5053142;28;20413;-64
2023/12/07 09:09:25;;;;;;;28.03;19.43;;;;;;;;;;5051585;28;20472;-63
2023/12/07 09:11:50;;;;;;;32.60;20.80;;;;;;;;;;5053127;28;20425;-64
2023/12/07 09:14:16;;;;;;;169.35;30.08;;;;;;;;;;5052535;28;20534;-63
2023/12/07 09:16:43;;;;;;;46.33;19.30;;;;;;;;;;5052195;28;20419;-63
2023/12/07 09:19:08;;;;;;;43.97;18.23;;;;;;;;;;5034882;28;21027;-63
2023/12/07 09:21:34;;;;;;;53.90;14.68;;;;;;;;;;5052341;28;20480;-63
2023/12/07 09:23:59;;;;;;;48.37;18.40;;;;;;;;;;5052437;28;20405;-64
2023/12/07 09:26:24;;;;;;;67.83;17.60;;;;;;;;;;5050338;28;20397;-64
2023/12/07 09:28:49;;;;;;;32.13;16.00;;;;;;;;;;5051931;28;20799;-64
2023/12/07 09:31:16;;;;;;;72.70;18.63;;;;;;;;;;5052212;28;20480;-63
2023/12/07 09:33:42;;;;;;;33.53;14.60;;;;;;;;;;5052701;28;20756;-63
2023/12/07 09:36:08;;;;;;;151.95;20.30;;;;;;;;;;5011341;28;20397;-63
2023/12/07 09:38:34;;;;;;;54.88;13.82;;;;;;;;;;5052176;28;20419;-63
2023/12/07 09:41:00;;;;;;;130.23;17.53;;;;;;;;;;5050681;28;20408;-64
2023/12/07 09:43:25;;;;;;;102.03;16.47;;;;;;;;;;5049628;28;20485;-64
2023/12/07 09:45:51;;;;;;;36.10;12.97;;;;;;;;;;5033352;28;20401;-63
2023/12/07 09:48:16;;;;;;;16.80;10.93;;;;;;;;;;5033276;28;20815;-63
2023/12/07 09:50:41;;;;;;;39.40;11.63;;;;;;;;;;5050065;28;20412;-64
2023/12/07 09:53:07;;;;;;;23.03;11.37;;;;;;;;;;5050187;28;20433;-63
2023/12/07 09:55:33;;;;;;;29.73;12.40;;;;;;;;;;5049692;28;20390;-64
2023/12/07 09:57:58;;;;;;;45.60;13.95;;;;;;;;;;5049556;28;20401;-64
2023/12/07 10:00:24;;;;;;;21.43;11.97;;;;;;;;;;5050126;28;20397;-64
2023/12/07 10:02:50;;;;;;;34.30;11.93;;;;;;;;;;5050796;28;20593;-64
2023/12/07 10:05:16;;;;;;;17.48;10.57;;;;;;;;;;5049479;28;20434;-64
2023/12/07 10:07:43;;;;;;;38.35;11.20;;;;;;;;;;5050407;28;20406;-64
2023/12/07 10:10:11;;;;;;;38.27;12.33;;;;;;;;;;5007122;28;20394;-64
2023/12/07 10:12:38;;;;;;;22.63;11.43;;;;;;;;;;5049598;28;20397;-64
2023/12/07 10:15:16;;;;;;;73.45;16.67;;;;;;;;;;5031911;28;20428;-63
2023/12/07 10:17:47;;;;;;;38.57;13.63;;;;;;;;;;5028834;28;20475;-64
2023/12/07 10:20:13;;;;;;;22.30;13.45;;;;;;;;;;5035925;28;20428;-64
2023/12/07 10:22:39;;;;;;;19.35;11.63;;;;;;;;;;5031239;28;20921;-64
2023/12/07 10:25:04;;;;;;;20.33;11.35;;;;;;;;;;5050232;28;20493;-63
2023/12/07 10:27:30;;;;;;;17.73;11.97;;;;;;;;;;5045562;28;20413;-64
2023/12/07 10:29:55;;;;;;;44.40;14.63;;;;;;;;;;5039945;28;20410;-64
2023/12/07 10:32:21;;;;;;;21.65;12.50;;;;;;;;;;5049706;28;20418;-63
2023/12/07 10:34:47;;;;;;;18.85;12.38;;;;;;;;;;5033839;28;20393;-65
2023/12/07 10:37:12;;;;;;;22.83;13.37;;;;;;;;;;5048697;28;20934;-64
2023/12/07 10:39:37;;;;;;;30.50;12.95;;;;;;;;;;5050901;28;20394;-65
2023/12/07 10:42:03;;;;;;;19.70;10.93;;;;;;;;;;5050962;28;20547;-64
2023/12/07 10:44:28;;;;;;;28.60;12.70;;;;;;;;;;5033487;28;20421;-65
2023/12/07 10:46:53;;;;;;;20.58;12.73;;;;;;;;;;5050101;28;20773;-65
2023/12/07 10:49:19;;;;;;;20.13;12.27;;;;;;;;;;5032993;28;20920;-64
2023/12/07 10:51:49;;;;;;;22.87;12.87;;;;;;;;;;5051354;28;20390;-65
2023/12/07 10:54:15;;;;;;;22.05;12.02;;;;;;;;;;5032418;28;20488;-65
2023/12/07 10:56:44;;;;;;;43.55;14.95;;;;;;;;;;5051132;28;20536;-65
2023/12/07 10:59:11;;;;;;;19.10;11.77;;;;;;;;;;5050413;28;20393;-65
2023/12/07 11:01:37;;;;;;;18.60;12.37;;;;;;;;;;5050089;28;20492;-65
2023/12/07 11:04:03;;;;;;;19.38;12.13;;;;;;;;;;5050306;28;20832;-65
2023/12/07 11:06:28;;;;;;;19.30;11.90;;;;;;;;;;5032875;28;20390;-65
2023/12/07 11:08:56;;;;;;;27.17;14.20;;;;;;;;;;5032295;28;20398;-65
2023/12/07 11:11:24;;;;;;;19.63;12.35;;;;;;;;;;5032512;28;20399;-65
2023/12/07 11:13:52;;;;;;;21.00;13.25;;;;;;;;;;5033035;28;20455;-65
2023/12/07 11:16:22;;;;;;;19.42;12.48;;;;;;;;;;5049503;28;20413;-65
2023/12/07 11:18:48;;;;;;;20.92;13.30;;;;;;;;;;5032611;28;20394;-65
2023/12/07 11:21:13;;;;;;;22.27;13.27;;;;;;;;;;5047498;28;20394;-65
2023/12/07 11:23:39;;;;;;;19.85;12.77;;;;;;;;;;5032755;28;20386;-65
2023/12/07 11:26:04;;;;;;;20.80;12.77;;;;;;;;;;5050142;28;20811;-65
2023/12/07 11:28:34;;;;;;;19.15;12.35;;;;;;;;;;5031955;28;20404;-65
2023/12/07 11:31:00;;;;;;;25.60;15.13;;;;;;;;;;5050430;28;20904;-64
2023/12/07 11:33:26;;;;;;;22.33;14.00;;;;;;;;;;5049712;28;20465;-67
2023/12/07 11:36:01;;;;;;;25.87;15.70;;;;;;;;;;5031743;28;20810;-67
2023/12/07 11:38:27;;;;;;;24.73;15.05;;;;;;;;;;5050105;28;20401;-67
2023/12/07 11:40:52;;;;;;;26.87;16.27;;;;;;;;;;5050597;28;20778;-68
2023/12/07 11:43:18;;;;;;;23.80;15.20;;;;;;;;;;5031043;28;20385;-67
2023/12/07 11:45:49;;;;;;;27.30;16.17;;;;;;;;;;5032486;28;20428;-67
2023/12/07 11:48:15;;;;;;;25.88;16.38;;;;;;;;;;5049220;28;20780;-67
2023/12/07 11:50:54;;;;;;;27.95;16.90;;;;;;;;;;5049387;28;20386;-67
2023/12/07 11:53:21;;;;;;;27.07;17.13;;;;;;;;;;5031899;28;20761;-68
2023/12/07 11:55:46;;;;;;;27.90;17.05;;;;;;;;;;5050035;28;20390;-67
2023/12/07 11:58:12;;;;;;;28.47;17.63;;;;;;;;;;5048761;28;20485;-67
2023/12/07 12:00:37;;;;;;;29.88;18.15;;;;;;;;;;5033359;28;20404;-67
2023/12/07 12:03:03;;;;;;;31.10;17.93;;;;;;;;;;5049232;28;20405;-67
2023/12/07 12:05:29;;;;;;;34.38;19.75;;;;;;;;;;5049236;28;21014;-68
2023/12/07 12:07:55;;;;;;;33.67;19.85;;;;;;;;;;5049907;28;20425;-65
2023/12/07 12:10:22;;;;;;;39.13;21.70;;;;;;;;;;5048957;28;20518;-65
2023/12/07 12:12:48;;;;;;;31.02;19.30;;;;;;;;;;5050124;28;20488;-65
2023/12/07 12:15:13;;;;;;;34.67;21.00;;;;;;;;;;5049445;28;20409;-65
2023/12/07 12:17:38;;;;;;;35.00;20.08;;;;;;;;;;5048236;28;20405;-65
2023/12/07 12:20:04;;;;;;;42.67;22.23;;;;;;;;;;5049351;28;20420;-65
2023/12/07 12:22:29;;;;;;;37.28;22.13;;;;;;;;;;5037060;28;20478;-62
2023/12/07 12:24:55;;;;;;;33.77;20.13;;;;;;;;;;5035773;28;20889;-62
2023/12/07 12:27:20;;;;;;;30.70;19.77;;;;;;;;;;5022593;28;20453;-63
2023/12/07 12:29:46;;;;;;;30.43;19.60;;;;;;;;;;5019926;28;20464;-63
2023/12/07 12:32:11;;;;;;;31.70;20.42;;;;;;;;;;5028196;28;20785;-62
2023/12/07 12:34:37;;;;;;;33.83;21.93;;;;;;;;;;5043137;28;20389;-62
2023/12/07 12:37:05;;;;;;;34.67;21.47;;;;;;;;;;5043873;28;20393;-63
2023/12/07 12:39:31;;;;;;;46.67;24.55;;;;;;;;;;5049353;28;20476;-62
2023/12/07 12:41:57;;;;;;;38.45;23.33;;;;;;;;;;5049813;28;20492;-63
2023/12/07 12:44:23;;;;;;;29.92;20.45;;;;;;;;;;5049163;28;20450;-63
2023/12/07 12:46:48;;;;;;;30.85;20.85;;;;;;;;;;5026985;28;20399;-63
2023/12/07 12:49:13;;;;;;;36.00;22.70;;;;;;;;;;5029017;28;20434;-62
2023/12/07 12:51:38;;;;;;;36.03;22.60;;;;;;;;;;5028721;28;20398;-62
2023/12/07 12:54:04;;;;;;;37.58;23.63;;;;;;;;;;5028600;28;20406;-62
2023/12/07 12:56:29;;;;;;;34.17;22.23;;;;;;;;;;5042481;28;20411;-63
2023/12/07 12:58:57;;;;;;;36.80;24.67;;;;;;;;;;5034864;28;20403;-63
2023/12/07 13:01:23;;;;;;;38.60;24.60;;;;;;;;;;5030782;28;20440;-62
2023/12/07 13:03:48;;;;;;;33.80;22.85;;;;;;;;;;5049356;28;20888;-63
2023/12/07 13:06:15;;;;;;;39.63;24.80;;;;;;;;;;5049009;28;20409;-63
2023/12/07 13:08:41;;;;;;;39.60;24.58;;;;;;;;;;5047188;28;20734;-62
2023/12/07 13:11:06;;;;;;;40.13;25.23;;;;;;;;;;5049003;28;20965;-64
2023/12/07 13:13:31;;;;;;;42.57;25.80;;;;;;;;;;5049573;28;20390;-64
2023/12/07 13:15:57;;;;;;;38.27;24.83;;;;;;;;;;5040418;28;20750;-64
2023/12/07 13:18:22;;;;;;;305.60;189.57;;;;;;;;;;5048298;28;20414;-64
2023/12/07 13:20:47;;;;;;;50.97;33.80;;;;;;;;;;5048395;28;20421;-64
2023/12/07 13:23:13;;;;;;;31.97;21.73;;;;;;;;;;5048587;28;20520;-64
2023/12/07 13:25:38;;;;;;;34.80;22.65;;;;;;;;;;5049242;28;20393;-63
2023/12/07 13:28:04;;;;;;;34.17;22.03;;;;;;;;;;5047917;28;20426;-64
2023/12/07 13:30:33;;;;;;;36.37;25.13;;;;;;;;;;5050613;28;20397;-63
2023/12/07 13:32:59;;;;;;;221.83;136.43;;;;;;;;;;5052154;28;20412;-63
2023/12/07 13:35:24;;;;;;;268.63;149.30;;;;;;;;;;5051099;28;20397;-64
2023/12/07 13:37:50;;;;;;;234.20;142.70;;;;;;;;;;5052468;28;20408;-63
2023/12/07 13:40:15;;;;;;;43.43;29.03;;;;;;;;;;5052247;28;20397;-63
2023/12/07 13:42:40;;;;;;;75.10;48.13;;;;;;;;;;5051911;28;20477;-64
2023/12/07 13:45:08;;;;;;;39.97;25.95;;;;;;;;;;5051615;28;20393;-64
2023/12/07 13:47:36;;;;;;;36.55;26.17;;;;;;;;;;5051812;28;20432;-64
2023/12/07 13:50:03;;;;;;;50.28;33.72;;;;;;;;;;5050824;28;20408;-64
2023/12/07 13:52:28;;;;;;;36.17;26.42;;;;;;;;;;5051752;28;20435;-63
2023/12/07 13:54:54;;;;;;;35.40;24.03;;;;;;;;;;5052165;28;20473;-64
2023/12/07 13:57:20;;;;;;;36.67;24.15;;;;;;;;;;5050871;28;20416;-64
2023/12/07 13:59:46;;;;;;;36.50;24.80;;;;;;;;;;5052195;28;20406;-64
2023/12/07 14:02:12;;;;;;;38.33;24.47;;;;;;;;;;5051044;28;20406;-64
2023/12/07 14:04:37;;;;;;;37.07;24.20;;;;;;;;;;5051476;28;20390;-63
2023/12/07 14:07:06;;;;;;;38.08;23.25;;;;;;;;;;5051314;28;20500;-64